createdAt,value
2017-03-25T00:00:03.483Z,1026.09
2017-03-25T00:00:57.537Z,1026.05
2017-03-25T00:01:57.576Z,1026.05
2017-03-25T00:02:51.556Z,1026.05
2017-03-25T00:03:51.621Z,1026.05
2017-03-25T00:04:46.622Z,1026.05
2017-03-25T00:05:41.659Z,1026.05
2017-03-25T00:06:35.669Z,1026.01
2017-03-25T00:07:29.732Z,1026.05
2017-03-25T00:08:29.735Z,1026.04
2017-03-25T00:09:23.799Z,1026.07
2017-03-25T00:10:23.807Z,1026.05
2017-03-25T00:11:17.814Z,1026.05
2017-03-25T00:12:06.876Z,1026.08
2017-03-25T00:12:55.930Z,1026.05
2017-03-25T00:13:45.313Z,1026.05
2017-03-25T00:14:34.015Z,1026.09
2017-03-25T00:15:23.008Z,1026.08
2017-03-25T00:16:17.019Z,1026.09
2017-03-25T00:17:06.076Z,1026.09
2017-03-25T00:17:55.072Z,1026.13
2017-03-25T00:18:49.113Z,1026.12
2017-03-25T00:19:43.366Z,1026.12
2017-03-25T00:20:32.311Z,1026.14
2017-03-25T00:21:27.251Z,1026.11
2017-03-25T00:22:15.299Z,1026.03
2017-03-25T00:23:03.351Z,1026.05
2017-03-25T00:23:52.316Z,1026.06
2017-03-25T00:24:52.398Z,1026.04
2017-03-25T00:25:46.389Z,1026.04
2017-03-25T00:26:47.595Z,1026.06
2017-03-25T00:27:36.428Z,1026.04
2017-03-25T00:28:24.510Z,1026.05
2017-03-25T00:29:18.534Z,1026.05
2017-03-25T00:30:13.570Z,1026.04
2017-03-25T00:31:07.633Z,1026.04
2017-03-25T00:32:01.644Z,1026.06
2017-03-25T00:33:01.703Z,1026.03
2017-03-25T00:33:55.736Z,1026.03
2017-03-25T00:34:55.703Z,1026.01
2017-03-25T00:35:50.754Z,1026.02
2017-03-25T00:36:45.763Z,1026.03
2017-03-25T00:37:45.814Z,1026.05
2017-03-25T00:38:45.864Z,1026.04
2017-03-25T00:39:46.865Z,1026.09
2017-03-25T00:40:41.848Z,1026.01
2017-03-25T00:41:41.911Z,1026.04
2017-03-25T00:42:36.942Z,1026.02
2017-03-25T00:43:30.943Z,1026.06
2017-03-25T00:44:24.986Z,1026.05
2017-03-25T00:45:25.058Z,1026.02
2017-03-25T00:46:19.026Z,1026.04
2017-03-25T00:47:19.083Z,1026.01
2017-03-25T00:48:19.100Z,1026.03
2017-03-25T00:49:13.228Z,1026.04
2017-03-25T00:50:08.142Z,1026.00
2017-03-25T00:51:02.169Z,1026.03
2017-03-25T00:51:57.288Z,1026.04
2017-03-25T00:52:51.244Z,1026.05
2017-03-25T00:53:46.268Z,1026.03
2017-03-25T00:54:35.310Z,1025.99
2017-03-25T00:55:30.309Z,1026.01
2017-03-25T00:56:18.340Z,1026.03
2017-03-25T00:57:18.432Z,1026.01
2017-03-25T00:58:13.467Z,1026.04
2017-03-25T00:59:13.460Z,1026.05
2017-03-25T01:00:08.513Z,1026.01
2017-03-25T01:01:08.537Z,1026.00
2017-03-25T01:01:57.608Z,1026.03
2017-03-25T01:02:46.564Z,1026.02
2017-03-25T01:03:40.663Z,1025.97
2017-03-25T01:04:29.632Z,1025.93
2017-03-25T01:05:18.738Z,1025.94
2017-03-25T01:06:12.735Z,1025.92
2017-03-25T01:07:01.803Z,1025.93
2017-03-25T01:07:56.781Z,1025.92
2017-03-25T01:08:50.859Z,1025.93
2017-03-25T01:09:50.820Z,1025.91
2017-03-25T01:10:45.805Z,1025.90
2017-03-25T01:11:40.037Z,1025.89
2017-03-25T01:12:39.907Z,1025.89
2017-03-25T01:13:40.993Z,1025.92
2017-03-25T01:14:41.139Z,1025.91
2017-03-25T01:15:36.011Z,1025.85
2017-03-25T01:16:36.050Z,1025.87
2017-03-25T01:17:30.068Z,1025.89
2017-03-25T01:18:19.086Z,1025.88
2017-03-25T01:19:14.156Z,1025.87
2017-03-25T01:20:09.226Z,1025.82
2017-03-25T01:21:09.192Z,1025.83
2017-03-25T01:22:03.222Z,1025.84
2017-03-25T01:22:58.256Z,1025.82
2017-03-25T01:23:52.239Z,1025.84
2017-03-25T01:24:52.344Z,1025.80
2017-03-25T01:25:52.340Z,1025.76
2017-03-25T01:26:46.371Z,1025.81
2017-03-25T01:27:47.436Z,1025.79
2017-03-25T01:28:48.371Z,1025.82
2017-03-25T01:29:48.422Z,1025.77
2017-03-25T01:30:48.432Z,1025.72
2017-03-25T01:31:42.510Z,1025.76
2017-03-25T01:32:42.529Z,1025.72
2017-03-25T01:33:37.541Z,1025.74
2017-03-25T01:34:37.560Z,1025.74
2017-03-25T01:35:31.601Z,1025.72
2017-03-25T01:36:19.639Z,1025.72
2017-03-25T01:37:13.710Z,1025.74
2017-03-25T01:38:07.642Z,1025.75
2017-03-25T01:39:01.707Z,1025.71
2017-03-25T01:39:55.745Z,1025.70
2017-03-25T01:40:49.731Z,1025.73
2017-03-25T01:41:44.778Z,1025.72
2017-03-25T01:42:39.835Z,1025.70
2017-03-25T01:43:34.901Z,1025.66
2017-03-25T01:44:23.933Z,1025.70
2017-03-25T01:45:12.246Z,1025.68
2017-03-25T01:46:06.975Z,1025.65
2017-03-25T01:47:06.960Z,1025.65
2017-03-25T01:48:07.052Z,1025.63
2017-03-25T01:49:01.043Z,1025.64
2017-03-25T01:50:01.031Z,1025.64
2017-03-25T01:50:56.201Z,1025.63
2017-03-25T01:51:51.109Z,1025.63
2017-03-25T01:52:51.162Z,1025.67
2017-03-25T01:53:45.215Z,1025.64
2017-03-25T01:54:33.209Z,1025.64
2017-03-25T01:55:22.246Z,1025.61
2017-03-25T01:56:10.251Z,1025.64
2017-03-25T01:57:04.314Z,1025.61
2017-03-25T01:58:04.322Z,1025.60
2017-03-25T01:58:53.415Z,1025.56
2017-03-25T01:59:53.430Z,1025.58
2017-03-25T02:00:41.432Z,1025.58
2017-03-25T02:01:30.483Z,1025.55
2017-03-25T02:02:30.515Z,1025.57
2017-03-25T02:03:25.534Z,1025.58
2017-03-25T02:04:19.878Z,1025.54
2017-03-25T02:05:07.571Z,1025.59
2017-03-25T02:05:55.642Z,1025.55
2017-03-25T02:06:44.692Z,1025.52
2017-03-25T02:07:32.692Z,1025.59
2017-03-25T02:08:20.718Z,1025.55
2017-03-25T02:09:20.741Z,1025.54
2017-03-25T02:10:21.051Z,1025.53
2017-03-25T02:11:14.791Z,1025.54
2017-03-25T02:12:14.848Z,1025.55
2017-03-25T02:13:09.869Z,1025.56
2017-03-25T02:14:04.974Z,1025.53
2017-03-25T02:15:04.991Z,1025.54
2017-03-25T02:15:59.999Z,1025.52
2017-03-25T02:16:59.966Z,1025.51
2017-03-25T02:17:48.947Z,1025.51
2017-03-25T02:18:43.044Z,1025.51
2017-03-25T02:19:32.023Z,1025.50
2017-03-25T02:20:32.129Z,1025.47
2017-03-25T02:21:26.127Z,1025.47
2017-03-25T02:22:21.206Z,1025.46
2017-03-25T02:23:16.166Z,1025.45
2017-03-25T02:24:05.215Z,1025.44
2017-03-25T02:24:59.272Z,1025.45
2017-03-25T02:25:54.265Z,1025.44
2017-03-25T02:26:43.316Z,1025.42
2017-03-25T02:27:38.309Z,1025.43
2017-03-25T02:28:32.325Z,1025.41
2017-03-25T02:29:27.405Z,1025.42
2017-03-25T02:30:16.415Z,1025.39
2017-03-25T02:31:11.497Z,1025.40
2017-03-25T02:32:00.505Z,1025.38
2017-03-25T02:32:49.561Z,1025.33
2017-03-25T02:33:38.562Z,1025.35
2017-03-25T02:34:32.606Z,1025.34
2017-03-25T02:35:32.587Z,1025.31
2017-03-25T02:36:33.713Z,1025.33
2017-03-25T02:37:27.666Z,1025.30
2017-03-25T02:38:16.654Z,1025.29
2017-03-25T02:39:10.766Z,1025.32
2017-03-25T02:40:04.824Z,1025.30
2017-03-25T02:40:52.821Z,1025.33
2017-03-25T02:41:40.860Z,1025.33
2017-03-25T02:42:34.928Z,1025.33
2017-03-25T02:43:34.855Z,1025.30
2017-03-25T02:44:34.911Z,1025.29
2017-03-25T02:45:29.938Z,1025.29
2017-03-25T02:46:24.082Z,1025.26
2017-03-25T02:47:24.074Z,1025.28
2017-03-25T02:48:18.999Z,1025.23
2017-03-25T02:49:19.034Z,1025.29
2017-03-25T02:50:13.030Z,1025.30
2017-03-25T02:51:13.108Z,1025.30
2017-03-25T02:52:07.894Z,1025.30
2017-03-25T02:53:02.184Z,1025.30
2017-03-25T02:53:51.201Z,1025.35
2017-03-25T02:54:51.223Z,1025.26
2017-03-25T02:55:57.286Z,1025.30
2017-03-25T02:56:51.290Z,1025.28
2017-03-25T02:57:51.286Z,1025.31
2017-03-25T02:58:51.342Z,1025.34
2017-03-25T02:59:40.359Z,1025.33
2017-03-25T03:00:28.354Z,1025.31
2017-03-25T03:01:22.820Z,1025.31
2017-03-25T03:02:16.475Z,1025.29
2017-03-25T03:03:16.456Z,1025.28
2017-03-25T03:04:16.534Z,1025.32
2017-03-25T03:05:11.509Z,1025.29
2017-03-25T03:06:05.536Z,1025.30
2017-03-25T03:07:06.700Z,1025.27
2017-03-25T03:08:06.604Z,1025.26
2017-03-25T03:09:06.646Z,1025.26
2017-03-25T03:10:01.072Z,1025.27
2017-03-25T03:11:00.654Z,1025.27
2017-03-25T03:11:54.647Z,1025.22
2017-03-25T03:12:54.678Z,1025.29
2017-03-25T03:13:49.756Z,1025.20
2017-03-25T03:14:44.711Z,1025.23
2017-03-25T03:15:44.812Z,1025.23
2017-03-25T03:16:39.856Z,1025.20
2017-03-25T03:17:34.858Z,1025.20
2017-03-25T03:18:35.880Z,1025.20
2017-03-25T03:19:35.948Z,1025.22
2017-03-25T03:20:35.917Z,1025.23
2017-03-25T03:21:30.975Z,1025.24
2017-03-25T03:22:25.038Z,1025.23
2017-03-25T03:23:25.447Z,1025.23
2017-03-25T03:24:20.105Z,1025.24
2017-03-25T03:25:15.057Z,1025.22
2017-03-25T03:26:09.129Z,1025.20
2017-03-25T03:27:03.142Z,1025.22
2017-03-25T03:27:57.186Z,1025.20
2017-03-25T03:28:52.187Z,1025.22
2017-03-25T03:29:52.299Z,1025.18
2017-03-25T03:30:46.247Z,1025.19
2017-03-25T03:31:46.242Z,1025.19
2017-03-25T03:32:41.225Z,1025.15
2017-03-25T03:33:36.365Z,1025.18
2017-03-25T03:34:36.341Z,1025.19
2017-03-25T03:35:31.370Z,1025.14
2017-03-25T03:36:26.411Z,1025.17
2017-03-25T03:37:21.438Z,1025.23
2017-03-25T03:38:21.473Z,1025.22
2017-03-25T03:39:16.553Z,1025.22
2017-03-25T03:40:16.495Z,1025.23
2017-03-25T03:41:11.558Z,1025.21
2017-03-25T03:42:06.528Z,1025.20
2017-03-25T03:43:12.549Z,1025.22
2017-03-25T03:44:06.642Z,1025.19
2017-03-25T03:45:06.658Z,1025.17
2017-03-25T03:46:01.674Z,1025.18
2017-03-25T03:47:01.689Z,1025.18
2017-03-25T03:47:55.886Z,1025.18
2017-03-25T03:48:55.722Z,1025.18
2017-03-25T03:49:49.733Z,1025.19
2017-03-25T03:50:43.809Z,1025.21
2017-03-25T03:51:37.836Z,1025.20
2017-03-25T03:52:37.829Z,1025.22
2017-03-25T03:53:32.912Z,1025.18
2017-03-25T03:54:27.990Z,1025.17
2017-03-25T03:55:28.917Z,1025.17
2017-03-25T03:56:29.007Z,1025.15
2017-03-25T03:57:28.925Z,1025.13
2017-03-25T03:58:24.047Z,1025.16
2017-03-25T03:59:18.050Z,1025.13
2017-03-25T04:00:18.020Z,1025.17
2017-03-25T04:01:13.112Z,1025.14
2017-03-25T04:02:13.437Z,1025.15
2017-03-25T04:03:07.147Z,1025.14
2017-03-25T04:04:07.158Z,1025.13
2017-03-25T04:05:02.177Z,1025.15
2017-03-25T04:05:57.321Z,1025.14
2017-03-25T04:06:57.254Z,1025.13
2017-03-25T04:07:52.312Z,1025.10
2017-03-25T04:08:47.340Z,1025.12
2017-03-25T04:09:48.322Z,1025.09
2017-03-25T04:10:48.336Z,1025.07
2017-03-25T04:11:48.359Z,1025.10
2017-03-25T04:12:43.574Z,1025.06
2017-03-25T04:13:37.443Z,1025.07
2017-03-25T04:14:37.457Z,1025.07
2017-03-25T04:15:32.456Z,1025.03
2017-03-25T04:16:32.498Z,1025.06
2017-03-25T04:17:26.490Z,1025.06
2017-03-25T04:18:26.649Z,1025.03
2017-03-25T04:19:21.572Z,1025.06
2017-03-25T04:20:21.634Z,1025.02
2017-03-25T04:21:21.606Z,1025.01
2017-03-25T04:22:21.680Z,1024.99
2017-03-25T04:23:21.641Z,1024.99
2017-03-25T04:24:21.747Z,1024.99
2017-03-25T04:25:15.743Z,1025.01
2017-03-25T04:26:15.732Z,1025.04
2017-03-25T04:27:10.776Z,1025.01
2017-03-25T04:28:10.832Z,1025.01
2017-03-25T04:29:04.826Z,1025.04
2017-03-25T04:30:04.951Z,1025.04
2017-03-25T04:30:59.875Z,1025.06
2017-03-25T04:31:54.954Z,1025.04
2017-03-25T04:32:54.939Z,1025.03
2017-03-25T04:33:49.925Z,1025.01
2017-03-25T04:34:45.082Z,1025.00
2017-03-25T04:35:45.989Z,1025.06
2017-03-25T04:36:46.102Z,1025.09
2017-03-25T04:37:46.112Z,1025.07
2017-03-25T04:38:41.068Z,1025.05
2017-03-25T04:39:35.139Z,1025.07
2017-03-25T04:40:35.162Z,1025.06
2017-03-25T04:41:30.123Z,1025.06
2017-03-25T04:42:30.092Z,1025.06
2017-03-25T04:43:24.248Z,1025.07
2017-03-25T04:44:25.261Z,1025.07
2017-03-25T04:45:26.236Z,1025.04
2017-03-25T04:46:21.318Z,1025.08
2017-03-25T04:47:15.335Z,1025.06
2017-03-25T04:48:15.339Z,1025.07
2017-03-25T04:49:10.389Z,1025.06
2017-03-25T04:50:10.415Z,1025.08
2017-03-25T04:51:04.409Z,1025.08
2017-03-25T04:52:04.425Z,1025.07
2017-03-25T04:52:59.503Z,1025.07
2017-03-25T04:53:54.505Z,1025.06
2017-03-25T04:54:54.511Z,1025.06
2017-03-25T04:55:49.525Z,1025.06
2017-03-25T04:56:44.552Z,1025.06
2017-03-25T04:57:44.621Z,1025.05
2017-03-25T04:58:39.887Z,1025.06
2017-03-25T04:59:34.653Z,1025.06
2017-03-25T05:00:34.996Z,1025.04
2017-03-25T05:01:29.750Z,1025.03
2017-03-25T05:02:24.744Z,1025.05
2017-03-25T05:03:24.747Z,1025.09
2017-03-25T05:04:19.868Z,1025.04
2017-03-25T05:05:14.879Z,1025.04
2017-03-25T05:06:14.876Z,1025.02
2017-03-25T05:07:09.835Z,1025.02
2017-03-25T05:08:05.039Z,1025.02
2017-03-25T05:08:59.047Z,1025.02
2017-03-25T05:09:59.097Z,1025.01
2017-03-25T05:10:58.992Z,1025.03
2017-03-25T05:11:54.052Z,1025.06
2017-03-25T05:12:54.064Z,1025.04
2017-03-25T05:13:54.059Z,1025.11
2017-03-25T05:14:54.106Z,1025.05
2017-03-25T05:15:54.156Z,1025.06
2017-03-25T05:16:54.237Z,1025.05
2017-03-25T05:17:54.127Z,1025.06
2017-03-25T05:18:54.159Z,1025.06
2017-03-25T05:19:54.187Z,1025.07
2017-03-25T05:20:54.221Z,1025.07
2017-03-25T05:21:54.260Z,1025.07
2017-03-25T05:22:54.262Z,1025.08
2017-03-25T05:23:54.247Z,1025.10
2017-03-25T05:24:54.315Z,1025.11
2017-03-25T05:25:54.341Z,1025.11
2017-03-25T05:26:54.343Z,1025.07
2017-03-25T05:27:54.476Z,1025.07
2017-03-25T05:28:54.440Z,1025.13
2017-03-25T05:29:54.427Z,1025.13
2017-03-25T05:30:54.381Z,1025.12
2017-03-25T05:31:54.497Z,1025.09
2017-03-25T05:32:54.537Z,1025.13
2017-03-25T05:33:54.574Z,1025.14
2017-03-25T05:34:54.532Z,1025.14
2017-03-25T05:35:54.550Z,1025.14
2017-03-25T05:36:54.589Z,1025.15
2017-03-25T05:37:54.587Z,1025.12
2017-03-25T05:38:54.663Z,1025.11
2017-03-25T05:39:54.708Z,1025.11
2017-03-25T05:40:54.677Z,1025.14
2017-03-25T05:41:54.686Z,1025.15
2017-03-25T05:42:54.783Z,1025.16
2017-03-25T05:43:54.839Z,1025.13
2017-03-25T05:44:54.763Z,1025.08
2017-03-25T05:45:54.889Z,1025.13
2017-03-25T05:46:54.848Z,1025.11
2017-03-25T05:47:54.814Z,1025.12
2017-03-25T05:48:54.852Z,1025.11
2017-03-25T05:49:54.916Z,1025.14
2017-03-25T05:50:54.958Z,1025.16
2017-03-25T05:51:54.944Z,1025.15
2017-03-25T05:52:49.955Z,1025.15
2017-03-25T05:53:44.329Z,1025.16
2017-03-25T05:54:50.067Z,1025.19
2017-03-25T05:55:46.103Z,1025.11
2017-03-25T05:56:40.138Z,1025.09
2017-03-25T05:57:40.149Z,1025.09
2017-03-25T05:58:35.105Z,1025.10
2017-03-25T05:59:30.165Z,1025.15
2017-03-25T06:00:24.177Z,1025.14
2017-03-25T06:01:24.195Z,1025.12
2017-03-25T06:02:19.321Z,1025.11
2017-03-25T06:03:14.262Z,1025.10
2017-03-25T06:04:02.365Z,1025.08
2017-03-25T06:05:03.336Z,1025.08
2017-03-25T06:05:57.447Z,1025.09
2017-03-25T06:06:58.411Z,1025.09
2017-03-25T06:07:58.485Z,1025.08
2017-03-25T06:08:53.479Z,1025.06
2017-03-25T06:09:48.831Z,1025.09
2017-03-25T06:10:48.534Z,1025.10
2017-03-25T06:11:42.512Z,1025.13
2017-03-25T06:12:36.583Z,1025.09
2017-03-25T06:13:36.668Z,1025.11
2017-03-25T06:14:36.623Z,1025.09
2017-03-25T06:15:30.700Z,1025.13
2017-03-25T06:16:24.695Z,1025.12
2017-03-25T06:17:19.134Z,1025.10
2017-03-25T06:18:07.725Z,1025.13
2017-03-25T06:18:56.827Z,1025.10
2017-03-25T06:19:45.844Z,1025.12
2017-03-25T06:20:45.822Z,1025.10
2017-03-25T06:21:33.942Z,1025.13
2017-03-25T06:22:33.953Z,1025.11
2017-03-25T06:23:28.949Z,1025.12
2017-03-25T06:24:23.562Z,1025.12
2017-03-25T06:25:11.014Z,1025.15
2017-03-25T06:26:05.069Z,1025.12
2017-03-25T06:26:54.270Z,1025.16
2017-03-25T06:27:49.134Z,1025.16
2017-03-25T06:28:49.123Z,1025.13
2017-03-25T06:29:37.160Z,1025.15
2017-03-25T06:30:31.256Z,1025.17
2017-03-25T06:31:26.183Z,1025.18
2017-03-25T06:32:21.388Z,1025.19
2017-03-25T06:33:09.260Z,1025.20
2017-03-25T06:34:03.300Z,1025.20
2017-03-25T06:34:53.151Z,1025.19
2017-03-25T06:35:41.413Z,1025.16
2017-03-25T06:36:35.436Z,1025.17
2017-03-25T06:37:30.527Z,1025.20
2017-03-25T06:38:19.536Z,1025.22
2017-03-25T06:39:13.622Z,1025.18
2017-03-25T06:40:13.550Z,1025.24
2017-03-25T06:41:08.607Z,1025.21
2017-03-25T06:42:03.609Z,1025.22
2017-03-25T06:42:51.672Z,1025.23
2017-03-25T06:43:45.632Z,1025.17
2017-03-25T06:44:33.758Z,1025.21
2017-03-25T06:45:33.773Z,1025.19
2017-03-25T06:46:28.793Z,1025.16
2017-03-25T06:47:22.820Z,1025.19
2017-03-25T06:48:29.095Z,1025.16
2017-03-25T06:49:22.892Z,1025.21
2017-03-25T06:50:23.977Z,1025.21
2017-03-25T06:51:17.983Z,1025.17
2017-03-25T06:52:05.996Z,1025.22
2017-03-25T06:52:59.976Z,1025.19
2017-03-25T06:53:54.056Z,1025.20
2017-03-25T06:54:54.046Z,1025.25
2017-03-25T06:55:48.121Z,1025.24
2017-03-25T06:56:48.166Z,1025.23
2017-03-25T06:57:43.183Z,1025.25
2017-03-25T06:58:37.257Z,1025.29
2017-03-25T06:59:25.238Z,1025.33
2017-03-25T07:00:14.326Z,1025.31
2017-03-25T07:01:09.319Z,1025.29
2017-03-25T07:02:04.601Z,1025.30
2017-03-25T07:02:59.082Z,1025.28
2017-03-25T07:03:53.468Z,1025.34
2017-03-25T07:04:53.508Z,1025.30
2017-03-25T07:05:48.540Z,1025.28
2017-03-25T07:06:43.601Z,1025.31
2017-03-25T07:07:44.991Z,1025.31
2017-03-25T07:08:38.660Z,1025.34
2017-03-25T07:09:32.982Z,1025.30
2017-03-25T07:10:27.754Z,1025.32
2017-03-25T07:11:29.079Z,1025.30
2017-03-25T07:12:29.054Z,1025.34
2017-03-25T07:13:23.789Z,1025.34
2017-03-25T07:14:18.858Z,1025.38
2017-03-25T07:15:19.847Z,1025.35
2017-03-25T07:16:19.878Z,1025.38
2017-03-25T07:17:14.991Z,1025.36
2017-03-25T07:18:08.964Z,1025.42
2017-03-25T07:19:03.970Z,1025.44
2017-03-25T07:20:04.972Z,1025.44
2017-03-25T07:21:05.006Z,1025.44
2017-03-25T07:22:05.054Z,1025.44
2017-03-25T07:23:05.089Z,1025.41
2017-03-25T07:24:05.191Z,1025.47
2017-03-25T07:25:05.169Z,1025.48
2017-03-25T07:26:05.219Z,1025.44
2017-03-25T07:26:59.307Z,1025.44
2017-03-25T07:27:53.331Z,1025.38
2017-03-25T07:28:48.354Z,1025.39
2017-03-25T07:29:42.424Z,1025.39
2017-03-25T07:30:42.453Z,1025.36
2017-03-25T07:31:37.429Z,1025.37
2017-03-25T07:32:31.620Z,1025.33
2017-03-25T07:33:26.713Z,1025.30
2017-03-25T07:34:26.619Z,1025.31
2017-03-25T07:35:21.657Z,1025.33
2017-03-25T07:36:16.722Z,1025.30
2017-03-25T07:37:10.689Z,1025.32
2017-03-25T07:38:10.809Z,1025.26
2017-03-25T07:39:10.737Z,1025.30
2017-03-25T07:40:10.802Z,1025.30
2017-03-25T07:41:10.935Z,1025.26
2017-03-25T07:42:10.911Z,1025.27
2017-03-25T07:43:10.988Z,1025.29
2017-03-25T07:44:12.010Z,1025.28
2017-03-25T07:45:07.512Z,1025.29
2017-03-25T07:45:56.082Z,1025.29
2017-03-25T07:46:51.143Z,1025.30
2017-03-25T07:47:51.173Z,1025.33
2017-03-25T07:48:46.170Z,1025.28
2017-03-25T07:49:40.187Z,1025.32
2017-03-25T07:50:40.277Z,1025.37
2017-03-25T07:51:40.251Z,1025.28
2017-03-25T07:52:35.494Z,1025.26
2017-03-25T07:53:35.373Z,1025.34
2017-03-25T07:54:30.419Z,1025.31
2017-03-25T07:55:25.458Z,1025.29
2017-03-25T07:56:25.580Z,1025.29
2017-03-25T07:57:20.555Z,1025.33
2017-03-25T07:58:14.630Z,1025.32
2017-03-25T07:59:14.718Z,1025.32
2017-03-25T08:00:08.905Z,1025.33
2017-03-25T08:01:09.145Z,1025.31
2017-03-25T08:02:03.819Z,1025.29
2017-03-25T08:02:52.840Z,1025.29
2017-03-25T08:03:52.877Z,1025.33
2017-03-25T08:04:47.857Z,1025.40
2017-03-25T08:05:47.917Z,1025.30
2017-03-25T08:06:47.922Z,1025.34
2017-03-25T08:07:48.026Z,1025.33
2017-03-25T08:08:43.421Z,1025.34
2017-03-25T08:09:43.609Z,1025.34
2017-03-25T08:10:38.156Z,1025.34
2017-03-25T08:11:33.214Z,1025.37
2017-03-25T08:12:33.178Z,1025.37
2017-03-25T08:13:27.279Z,1025.32
2017-03-25T08:14:27.257Z,1025.34
2017-03-25T08:15:27.460Z,1025.36
2017-03-25T08:16:27.353Z,1025.37
2017-03-25T08:17:27.382Z,1025.30
2017-03-25T08:18:27.461Z,1025.36
2017-03-25T08:19:27.549Z,1025.36
2017-03-25T08:20:21.512Z,1025.32
2017-03-25T08:21:22.586Z,1025.33
2017-03-25T08:22:16.920Z,1025.31
2017-03-25T08:23:16.981Z,1025.34
2017-03-25T08:24:11.750Z,1025.36
2017-03-25T08:25:06.744Z,1025.40
2017-03-25T08:25:55.809Z,1025.38
2017-03-25T08:26:44.197Z,1025.37
2017-03-25T08:27:38.893Z,1025.35
2017-03-25T08:28:32.964Z,1025.30
2017-03-25T08:29:26.958Z,1025.37
2017-03-25T08:30:27.149Z,1025.32
2017-03-25T08:31:21.008Z,1025.33
2017-03-25T08:32:22.105Z,1025.34
2017-03-25T08:33:23.181Z,1025.33
2017-03-25T08:34:23.167Z,1025.34
2017-03-25T08:35:17.842Z,1025.30
2017-03-25T08:36:17.540Z,1025.29
2017-03-25T08:37:06.360Z,1025.35
2017-03-25T08:37:54.368Z,1025.32
2017-03-25T08:38:49.027Z,1025.28
2017-03-25T08:39:43.482Z,1025.31
2017-03-25T08:40:37.576Z,1025.28
2017-03-25T08:41:31.584Z,1025.30
2017-03-25T08:42:26.581Z,1025.26
2017-03-25T08:43:15.737Z,1025.28
2017-03-25T08:44:10.715Z,1025.31
2017-03-25T08:45:10.755Z,1025.30
2017-03-25T08:46:04.812Z,1025.31
2017-03-25T08:46:58.829Z,1025.30
2017-03-25T08:47:58.856Z,1025.33
2017-03-25T08:48:53.969Z,1025.31
2017-03-25T08:49:53.971Z,1025.31
2017-03-25T08:50:48.363Z,1025.36
2017-03-25T08:51:43.094Z,1025.29
2017-03-25T08:52:43.118Z,1025.30
2017-03-25T08:53:37.194Z,1025.28
2017-03-25T08:54:31.243Z,1025.28
2017-03-25T08:55:31.270Z,1025.25
2017-03-25T08:56:31.352Z,1025.26
2017-03-25T08:57:26.399Z,1025.28
2017-03-25T08:58:22.084Z,1025.31
2017-03-25T08:59:15.465Z,1025.30
2017-03-25T09:00:16.548Z,1025.24
2017-03-25T09:01:16.562Z,1025.29
2017-03-25T09:02:10.622Z,1025.26
2017-03-25T09:03:10.637Z,1025.30
2017-03-25T09:03:58.752Z,1025.23
2017-03-25T09:04:59.725Z,1025.31
2017-03-25T09:05:54.912Z,1025.29
2017-03-25T09:06:43.861Z,1025.34
2017-03-25T09:07:31.867Z,1025.29
2017-03-25T09:08:26.950Z,1025.32
2017-03-25T09:09:26.963Z,1025.30
2017-03-25T09:10:21.145Z,1025.33
2017-03-25T09:11:22.486Z,1025.30
2017-03-25T09:12:16.093Z,1025.29
2017-03-25T09:13:10.168Z,1025.29
2017-03-25T09:14:04.211Z,1025.26
2017-03-25T09:14:58.340Z,1025.25
2017-03-25T09:15:59.788Z,1025.30
2017-03-25T09:16:53.768Z,1025.24
2017-03-25T09:17:47.423Z,1025.26
2017-03-25T09:18:47.453Z,1025.26
2017-03-25T09:19:47.564Z,1025.30
2017-03-25T09:20:41.635Z,1025.29
2017-03-25T09:21:30.564Z,1025.28
2017-03-25T09:22:30.730Z,1025.24
2017-03-25T09:23:25.037Z,1025.26
2017-03-25T09:24:25.151Z,1025.23
2017-03-25T09:25:13.823Z,1025.17
2017-03-25T09:26:07.898Z,1025.20
2017-03-25T09:27:02.903Z,1025.14
2017-03-25T09:27:57.693Z,1025.15
2017-03-25T09:28:52.014Z,1025.18
2017-03-25T09:29:46.023Z,1025.12
2017-03-25T09:30:41.075Z,1025.15
2017-03-25T09:31:42.108Z,1025.11
2017-03-25T09:32:36.121Z,1025.10
2017-03-25T09:33:36.246Z,1025.06
2017-03-25T09:34:31.202Z,1025.13
2017-03-25T09:35:26.381Z,1025.09
2017-03-25T09:36:20.369Z,1025.08
2017-03-25T09:37:20.463Z,1025.10
2017-03-25T09:38:15.465Z,1025.09
2017-03-25T09:39:10.593Z,1025.06
2017-03-25T09:40:04.523Z,1025.13
2017-03-25T09:41:00.136Z,1025.08
2017-03-25T09:41:53.653Z,1025.05
2017-03-25T09:42:53.746Z,1025.02
2017-03-25T09:43:48.762Z,1025.06
2017-03-25T09:44:43.801Z,1025.11
2017-03-25T09:45:32.849Z,1025.09
2017-03-25T09:46:26.964Z,1025.07
2017-03-25T09:47:20.951Z,1025.06
2017-03-25T09:48:15.045Z,1025.06
2017-03-25T09:49:16.045Z,1024.98
2017-03-25T09:50:16.150Z,1025.02
2017-03-25T09:51:10.156Z,1025.04
2017-03-25T09:52:04.197Z,1025.00
2017-03-25T09:52:58.246Z,1024.90
2017-03-25T09:53:59.772Z,1024.99
2017-03-25T09:54:48.358Z,1025.02
2017-03-25T09:55:43.765Z,1024.97
2017-03-25T09:56:38.470Z,1025.01
2017-03-25T09:57:33.000Z,1024.99
2017-03-25T09:58:27.632Z,1024.96
2017-03-25T09:59:22.633Z,1025.01
2017-03-25T10:00:16.723Z,1025.02
2017-03-25T10:01:10.737Z,1024.97
2017-03-25T10:02:10.723Z,1025.00
2017-03-25T10:03:05.398Z,1024.97
2017-03-25T10:04:05.479Z,1025.04
2017-03-25T10:04:58.911Z,1024.93
2017-03-25T10:05:58.958Z,1024.94
2017-03-25T10:06:54.058Z,1024.95
2017-03-25T10:07:48.060Z,1024.97
2017-03-25T10:08:36.729Z,1024.93
2017-03-25T10:09:30.124Z,1024.92
2017-03-25T10:10:24.216Z,1024.97
2017-03-25T10:11:19.228Z,1024.90
2017-03-25T10:12:13.362Z,1024.93
2017-03-25T10:13:13.316Z,1025.01
2017-03-25T10:14:07.831Z,1024.93
2017-03-25T10:15:08.903Z,1024.87
2017-03-25T10:16:09.919Z,1024.89
2017-03-25T10:17:10.187Z,1024.92
2017-03-25T10:18:10.062Z,1024.88
2017-03-25T10:18:58.600Z,1024.88
2017-03-25T10:19:53.686Z,1024.88
2017-03-25T10:20:42.703Z,1024.75
2017-03-25T10:21:36.743Z,1024.72
2017-03-25T10:22:36.869Z,1024.66
2017-03-25T10:23:25.939Z,1024.71
2017-03-25T10:24:20.984Z,1024.76
2017-03-25T10:25:15.933Z,1024.69
2017-03-25T10:26:15.996Z,1024.72
2017-03-25T10:27:11.792Z,1024.73
2017-03-25T10:28:05.125Z,1024.63
2017-03-25T10:29:05.228Z,1024.67
2017-03-25T10:29:59.216Z,1024.70
2017-03-25T10:30:53.315Z,1024.57
2017-03-25T10:31:47.276Z,1024.59
2017-03-25T10:32:41.736Z,1024.56
2017-03-25T10:33:35.437Z,1024.57
2017-03-25T10:34:30.465Z,1024.59
2017-03-25T10:35:30.488Z,1024.54
2017-03-25T10:36:25.602Z,1024.45
2017-03-25T10:37:14.204Z,1024.45
2017-03-25T10:38:08.706Z,1024.53
2017-03-25T10:39:09.711Z,1024.49
2017-03-25T10:40:04.732Z,1024.53
2017-03-25T10:40:59.856Z,1024.52
2017-03-25T10:41:54.868Z,1024.50
2017-03-25T10:42:48.917Z,1024.49
2017-03-25T10:43:42.939Z,1024.53
2017-03-25T10:44:38.032Z,1024.49
2017-03-25T10:45:38.141Z,1024.47
2017-03-25T10:46:33.030Z,1024.41
2017-03-25T10:47:28.160Z,1024.47
2017-03-25T10:48:22.161Z,1024.32
2017-03-25T10:49:23.266Z,1024.41
2017-03-25T10:50:18.762Z,1024.43
2017-03-25T10:51:12.344Z,1024.36
2017-03-25T10:52:12.356Z,1024.32
2017-03-25T10:53:07.454Z,1024.36
2017-03-25T10:54:01.470Z,1024.35
2017-03-25T10:54:56.507Z,1024.30
2017-03-25T10:55:51.542Z,1024.24
2017-03-25T10:56:52.642Z,1024.33
2017-03-25T10:57:52.603Z,1024.32
2017-03-25T10:58:52.720Z,1024.26
2017-03-25T10:59:46.788Z,1024.25
2017-03-25T11:00:46.793Z,1024.21
2017-03-25T11:01:40.855Z,1024.22
2017-03-25T11:02:34.927Z,1024.13
2017-03-25T11:03:34.923Z,1024.14
2017-03-25T11:04:29.941Z,1024.15
2017-03-25T11:05:24.975Z,1024.06
2017-03-25T11:06:26.000Z,1024.09
2017-03-25T11:07:27.157Z,1024.09
2017-03-25T11:08:21.530Z,1024.10
2017-03-25T11:09:15.288Z,1024.15
2017-03-25T11:10:15.260Z,1024.12
2017-03-25T11:11:09.296Z,1024.04
2017-03-25T11:12:03.323Z,1024.07
2017-03-25T11:13:03.422Z,1024.07
2017-03-25T11:13:58.453Z,1023.98
2017-03-25T11:14:53.974Z,1024.14
2017-03-25T11:15:54.044Z,1024.05
2017-03-25T11:16:48.683Z,1023.97